Kingston, Washington
Current Conditions -  °F | °C
As of 1:53 PM on Monday 24 Nov 2014 (Local Time) from KPAE Reporting Station
Light Rain Light Rain  
Wind Chill: 39°   Ceiling: 6000
Heat Index: 46°   Visibility: 10mi
Dew Point: 39°   Wind: 17mph
Humidity: 76%   Direction: 150°SSE
Pressure: 30.21"   Gusts: NA
Location:  47.8°N, 122.5°W
Report Text: KPAE 242153Z 15015KT 10SM -RA BKN060 OVC075 08/04 A3021 RMK AO2 RAB07E39B52 SLP232 P0000 T00780039
Loading
Personal Weather Stations






























Interactive Weather Map New forecast layout! Learn more

10-Day Weather Forecast

Advertisements
Track Severe Weather on mobile